Time;durP1;ratioP1;P1;durP2;ratioP2;P2;SDS_P1;SDS_P2;PMS_P1;PMS_P2;Temp;Humidity;BMP_temperature;BMP_pressure;BME280_temperature;BME280_humidity;BME280_pressure;Samples;Min_cycle;Max_cycle;Signal;HPM_P1;HPM_P2
2021/03/19 00:01:10;;;;;;;6.80;6.05;;;7.80;99.90;;;;;;5086610;28;20186;-77
2021/03/19 00:03:37;;;;;;;6.70;5.85;;;7.80;99.90;;;;;;5077391;28;20217;-77
2021/03/19 00:06:03;;;;;;;7.18;6.47;;;7.80;99.90;;;;;;5076031;28;20210;-78
2021/03/19 00:08:30;;;;;;;6.13;5.55;;;7.80;99.90;;;;;;5069969;28;20219;-79
2021/03/19 00:10:57;;;;;;;6.82;5.47;;;7.80;99.90;;;;;;5069821;28;20221;-79
2021/03/19 00:13:23;;;;;;;6.88;6.18;;;7.80;99.90;;;;;;5069874;28;20194;-79
2021/03/19 00:15:49;;;;;;;11.68;5.63;;;7.80;99.90;;;;;;5080096;28;20257;-79
2021/03/19 00:18:16;;;;;;;5.78;5.18;;;7.80;99.90;;;;;;5087091;28;20553;-78
2021/03/19 00:20:45;;;;;;;6.95;5.80;;;7.80;99.90;;;;;;5071413;28;20237;-79
2021/03/19 00:23:11;;;;;;;7.13;6.15;;;7.80;99.90;;;;;;5076973;28;20257;-76
2021/03/19 00:25:38;;;;;;;8.15;6.38;;;7.80;99.90;;;;;;5071092;28;20307;-76
2021/03/19 00:28:06;;;;;;;6.50;5.75;;;7.70;99.90;;;;;;5069823;28;20240;-78
2021/03/19 00:30:33;;;;;;;6.03;5.53;;;7.70;99.90;;;;;;5069825;28;20214;-78
2021/03/19 00:33:01;;;;;;;8.05;5.93;;;7.70;99.90;;;;;;5071764;28;20213;-78
2021/03/19 00:35:27;;;;;;;6.32;5.72;;;7.70;99.90;;;;;;5072943;28;20600;-79
2021/03/19 00:37:53;;;;;;;6.95;6.20;;;7.70;99.90;;;;;;5075377;28;20218;-80
2021/03/19 00:40:20;;;;;;;8.55;6.80;;;7.70;99.90;;;;;;5092816;28;20222;-80
2021/03/19 00:42:47;;;;;;;7.68;6.97;;;7.70;99.90;;;;;;5093599;28;20239;-77
2021/03/19 00:45:16;;;;;;;7.70;6.22;;;7.70;99.90;;;;;;5081850;28;20214;-77
2021/03/19 00:47:42;;;;;;;7.18;6.47;;;7.70;99.90;;;;;;5072989;28;20226;-77
2021/03/19 00:50:11;;;;;;;8.88;7.35;;;7.70;99.90;;;;;;5073309;28;20918;-79
2021/03/19 00:52:38;;;;;;;7.03;6.40;;;7.70;99.90;;;;;;5073089;28;20194;-80
2021/03/19 00:55:06;;;;;;;7.20;6.50;;;7.70;99.90;;;;;;5089196;28;20560;-79
2021/03/19 00:57:32;;;;;;;6.68;5.93;;;7.70;99.90;;;;;;5073388;28;20560;-80
2021/03/19 00:59:58;;;;;;;10.98;6.43;;;7.60;99.90;;;;;;5073291;28;20194;-79
2021/03/19 01:02:25;;;;;;;8.13;7.35;;;7.60;99.90;;;;;;5073487;28;20223;-78
2021/03/19 01:04:52;;;;;;;7.60;6.60;;;7.60;99.90;;;;;;5072736;28;20210;-80
2021/03/19 01:07:19;;;;;;;8.57;6.20;;;7.60;99.90;;;;;;5078610;28;20288;-81
2021/03/19 01:09:45;;;;;;;7.22;6.47;;;7.60;99.90;;;;;;5077375;28;20593;-77
2021/03/19 01:12:11;;;;;;;7.35;6.53;;;7.60;99.90;;;;;;5081520;28;20208;-76
2021/03/19 01:14:38;;;;;;;8.00;7.20;;;7.60;99.90;;;;;;5088228;28;20630;-77
2021/03/19 01:17:04;;;;;;;7.25;6.55;;;7.50;99.90;;;;;;5073028;28;20202;-77
2021/03/19 01:19:31;;;;;;;7.18;5.95;;;7.60;99.90;;;;;;5072890;28;20328;-77
2021/03/19 01:21:57;;;;;;;7.00;6.30;;;7.50;99.90;;;;;;5077703;28;20221;-77
2021/03/19 01:24:23;;;;;;;6.63;5.60;;;7.60;99.90;;;;;;5083964;28;20223;-77
2021/03/19 01:26:49;;;;;;;11.68;6.75;;;7.50;99.90;;;;;;5073037;28;20214;-77
2021/03/19 01:29:16;;;;;;;8.98;7.40;;;7.50;99.90;;;;;;5072850;28;20288;-77
2021/03/19 01:31:42;;;;;;;7.97;7.05;;;7.40;99.90;;;;;;5091164;28;20224;-77
2021/03/19 01:34:08;;;;;;;7.45;6.70;;;7.40;99.90;;;;;;5091126;28;20193;-78
2021/03/19 01:36:35;;;;;;;6.60;6.00;;;7.40;99.90;;;;;;5092443;28;20270;-78
2021/03/19 01:39:01;;;;;;;7.18;6.57;;;7.40;99.90;;;;;;5092308;28;20194;-78
2021/03/19 01:41:27;;;;;;;9.57;6.70;;;7.40;99.90;;;;;;5086010;28;20251;-78
2021/03/19 01:43:55;;;;;;;7.50;6.80;;;7.40;99.90;;;;;;5071764;28;20214;-78
2021/03/19 01:46:59;;;;;;;6.50;5.90;;;7.40;99.90;;;;;;5088400;28;20217;-78
2021/03/19 01:50:03;;;;;;;7.10;6.38;;;7.40;99.90;;;;;;5072549;28;20223;-82
2021/03/19 01:53:06;;;;;;;6.68;6.00;;;7.30;99.90;;;;;;5072458;28;20363;-78
2021/03/19 01:56:10;;;;;;;6.55;5.95;;;7.40;99.90;;;;;;5072382;28;20232;-78
2021/03/19 01:59:13;;;;;;;6.63;5.93;;;7.40;99.90;;;;;;5072309;28;20201;-78
2021/03/19 02:02:17;;;;;;;7.15;6.15;;;7.30;99.90;;;;;;5072097;28;20213;-78
2021/03/19 02:05:20;;;;;;;5.85;5.30;;;7.30;99.90;;;;;;5078180;28;20271;-78
2021/03/19 02:08:24;;;;;;;5.78;5.13;;;7.30;99.90;;;;;;5072118;28;20229;-78
2021/03/19 02:11:42;;;;;;;8.43;6.50;;;7.20;99.90;;;;;;5071972;28;20561;-78
2021/03/19 02:14:45;;;;;;;6.10;5.50;;;7.20;99.90;;;;;;5025115;28;20208;-78
2021/03/19 02:17:48;;;;;;;7.00;6.30;;;7.20;99.90;;;;;;5009573;28;20216;-79
2021/03/19 02:20:52;;;;;;;5.03;4.53;;;7.20;99.90;;;;;;5067481;28;20241;-78
2021/03/19 02:23:55;;;;;;;7.45;6.65;;;7.20;99.90;;;;;;5075395;28;20217;-77
2021/03/19 02:26:59;;;;;;;9.75;6.35;;;7.20;99.90;;;;;;5091343;28;20209;-77
2021/03/19 02:30:02;;;;;;;6.50;5.90;;;7.20;99.90;;;;;;5090372;28;20193;-78
2021/03/19 02:32:30;;;;;;;6.43;5.90;;;7.20;99.90;;;;;;5071470;28;20220;-79
2021/03/19 02:35:00;;;;;;;6.85;5.68;;;7.10;99.90;;;;;;5071582;28;20221;-79
2021/03/19 02:37:29;;;;;;;8.50;6.05;;;7.10;99.90;;;;;;5071685;28;20248;-79
2021/03/19 02:39:55;;;;;;;7.38;6.13;;;7.10;99.90;;;;;;5090807;28;20197;-78
2021/03/19 02:42:26;;;;;;;6.88;6.15;;;7.10;99.90;;;;;;5070959;28;20213;-78
2021/03/19 02:44:53;;;;;;;6.60;5.90;;;7.10;99.90;;;;;;5075428;28;20296;-78
2021/03/19 02:47:19;;;;;;;7.50;5.55;;;7.00;99.90;;;;;;5071377;28;20218;-78
2021/03/19 02:49:47;;;;;;;7.53;5.90;;;7.10;99.90;;;;;;5090473;28;20201;-78
2021/03/19 02:52:14;;;;;;;6.55;5.95;;;7.10;99.90;;;;;;5078307;28;20217;-78
2021/03/19 02:54:41;;;;;;;7.75;6.40;;;7.00;99.90;;;;;;5075561;28;20216;-78
2021/03/19 02:57:07;;;;;;;6.28;5.68;;;7.00;99.90;;;;;;5089048;28;20194;-78
2021/03/19 02:59:34;;;;;;;7.55;6.18;;;7.00;99.90;;;;;;5091503;28;20193;-79
2021/03/19 03:02:00;;;;;;;7.18;6.47;;;7.00;99.90;;;;;;5090630;28;20222;-80
2021/03/19 03:04:26;;;;;;;6.57;5.97;;;7.10;99.90;;;;;;5090952;28;20576;-78
2021/03/19 03:06:56;;;;;;;7.05;5.75;;;7.00;99.90;;;;;;5076558;28;20229;-78
2021/03/19 03:09:24;;;;;;;7.13;6.03;;;7.10;99.90;;;;;;5076532;28;20194;-78
2021/03/19 03:11:51;;;;;;;9.25;6.15;;;7.00;99.90;;;;;;5079752;28;20593;-78
2021/03/19 03:14:21;;;;;;;7.13;5.53;;;7.00;99.90;;;;;;5088351;28;20189;-78
2021/03/19 03:16:48;;;;;;;7.10;5.70;;;7.00;99.90;;;;;;5071791;28;20740;-79
2021/03/19 03:19:17;;;;;;;7.00;5.82;;;6.90;99.90;;;;;;5090263;28;20205;-78
2021/03/19 03:21:44;;;;;;;8.02;6.43;;;6.90;99.90;;;;;;5090592;28;20235;-79
2021/03/19 03:24:13;;;;;;;6.88;6.18;;;7.00;99.90;;;;;;5090905;28;20193;-78
2021/03/19 03:26:40;;;;;;;7.65;5.55;;;6.90;99.90;;;;;;5086772;28;20214;-77
2021/03/19 03:29:07;;;;;;;7.45;6.53;;;6.90;99.90;;;;;;5071550;28;20214;-77
2021/03/19 03:31:34;;;;;;;8.50;6.25;;;6.90;99.90;;;;;;5071193;28;20222;-77
2021/03/19 03:34:00;;;;;;;6.50;5.50;;;6.90;99.90;;;;;;5070245;28;20225;-78
2021/03/19 03:36:26;;;;;;;6.50;5.32;;;6.90;99.90;;;;;;5070719;28;20218;-78
2021/03/19 03:38:52;;;;;;;8.05;6.20;;;6.90;99.90;;;;;;5070653;28;20198;-78
2021/03/19 03:41:23;;;;;;;8.57;5.07;;;6.90;99.90;;;;;;5071501;28;20214;-78
2021/03/19 03:43:49;;;;;;;8.95;6.47;;;6.90;99.90;;;;;;5078766;28;20267;-78
2021/03/19 03:46:19;;;;;;;7.57;6.10;;;6.90;99.90;;;;;;5083762;28;20194;-77
2021/03/19 03:48:46;;;;;;;6.68;5.40;;;6.90;99.90;;;;;;5070792;28;20241;-78
2021/03/19 03:51:12;;;;;;;7.25;5.82;;;6.80;99.90;;;;;;5081787;28;20229;-77
2021/03/19 03:53:40;;;;;;;5.63;5.13;;;6.80;99.90;;;;;;5076154;28;20689;-77
2021/03/19 03:56:09;;;;;;;7.72;5.88;;;6.80;99.90;;;;;;5070757;28;20218;-78
2021/03/19 03:58:36;;;;;;;5.40;4.85;;;6.80;99.90;;;;;;5070153;28;20287;-78
2021/03/19 04:01:03;;;;;;;7.10;5.30;;;6.80;99.90;;;;;;5071023;28;20220;-78
2021/03/19 04:03:30;;;;;;;6.40;5.20;;;6.80;99.90;;;;;;5071262;28;20314;-77
2021/03/19 04:05:56;;;;;;;7.03;5.25;;;6.80;99.90;;;;;;5078244;28;20213;-77
2021/03/19 04:08:26;;;;;;;5.80;4.90;;;6.80;99.90;;;;;;5088737;28;20223;-77
2021/03/19 04:10:55;;;;;;;6.40;5.75;;;6.80;99.90;;;;;;5078829;28;20214;-77
2021/03/19 04:13:22;;;;;;;7.57;5.90;;;6.80;99.90;;;;;;5075302;28;20201;-78
2021/03/19 04:15:50;;;;;;;6.82;5.43;;;6.70;99.90;;;;;;5081384;28;20214;-77
2021/03/19 04:18:17;;;;;;;5.88;4.97;;;6.80;99.90;;;;;;5074138;28;20272;-77
2021/03/19 04:20:45;;;;;;;7.43;5.78;;;6.70;99.90;;;;;;5074466;28;20233;-78
2021/03/19 04:23:12;;;;;;;5.55;4.45;;;6.70;99.90;;;;;;5078201;28;20194;-77
2021/03/19 04:25:38;;;;;;;7.40;4.80;;;6.70;99.90;;;;;;5074293;28;20210;-77
2021/03/19 04:28:07;;;;;;;5.78;4.88;;;6.70;99.90;;;;;;5074051;28;20279;-76
2021/03/19 04:30:37;;;;;;;6.78;5.00;;;6.70;99.90;;;;;;5074253;28;20195;-76
2021/03/19 04:33:06;;;;;;;7.63;5.57;;;6.70;99.90;;;;;;5089181;28;20225;-77
2021/03/19 04:35:33;;;;;;;5.80;4.85;;;6.70;99.90;;;;;;5092217;28;20675;-77
2021/03/19 04:38:04;;;;;;;7.18;4.75;;;6.70;99.90;;;;;;5081906;28;20238;-77
2021/03/19 04:40:31;;;;;;;6.10;5.50;;;6.60;99.90;;;;;;5073717;28;20218;-78
2021/03/19 04:42:58;;;;;;;7.35;5.25;;;6.60;99.90;;;;;;5073623;28;20219;-77
2021/03/19 04:45:25;;;;;;;5.20;4.70;;;6.60;99.90;;;;;;5075761;28;20206;-77
2021/03/19 04:47:53;;;;;;;4.70;3.95;;;6.60;99.90;;;;;;5075519;28;20225;-77
2021/03/19 04:50:21;;;;;;;5.68;5.00;;;6.70;99.90;;;;;;5094145;28;20265;-77
2021/03/19 04:52:47;;;;;;;5.68;4.78;;;6.60;99.90;;;;;;5080843;28;20215;-77
2021/03/19 04:55:14;;;;;;;5.53;4.47;;;6.60;99.90;;;;;;5080193;28;20194;-78
2021/03/19 04:57:41;;;;;;;4.72;4.25;;;6.60;99.90;;;;;;5089126;28;20217;-78
2021/03/19 05:00:10;;;;;;;9.98;5.82;;;6.50;99.90;;;;;;5092996;28;20216;-78
2021/03/19 05:02:39;;;;;;;6.43;4.80;;;6.50;99.90;;;;;;5093786;28;20224;-77
2021/03/19 05:05:09;;;;;;;5.72;4.80;;;6.50;99.90;;;;;;5092005;28;20929;-77
2021/03/19 05:07:36;;;;;;;5.25;4.38;;;6.50;99.90;;;;;;5086469;28;20225;-78
2021/03/19 05:10:05;;;;;;;5.00;4.50;;;6.40;99.90;;;;;;5072954;28;20685;-77
2021/03/19 05:12:31;;;;;;;7.80;6.50;;;6.50;99.90;;;;;;5081824;28;20243;-78
2021/03/19 05:14:57;;;;;;;6.05;4.97;;;6.50;99.90;;;;;;5093260;28;20213;-77
2021/03/19 05:17:24;;;;;;;6.97;5.43;;;6.50;99.90;;;;;;5087670;28;20213;-78
2021/03/19 05:19:50;;;;;;;4.45;4.00;;;6.40;99.90;;;;;;5085049;28;20264;-78
2021/03/19 05:22:16;;;;;;;5.40;3.95;;;6.40;99.90;;;;;;5073470;28;20221;-77
2021/03/19 05:24:43;;;;;;;6.15;4.25;;;6.50;99.90;;;;;;5073276;28;20221;-77
2021/03/19 05:27:10;;;;;;;5.00;3.88;;;6.40;99.90;;;;;;5081475;28;20688;-77
2021/03/19 05:29:36;;;;;;;6.70;4.97;;;6.40;99.90;;;;;;5075468;28;20578;-78
2021/03/19 05:32:02;;;;;;;5.72;4.63;;;6.40;99.90;;;;;;5072990;28;20222;-77
2021/03/19 05:34:28;;;;;;;6.13;4.60;;;6.40;99.90;;;;;;5073630;28;20206;-78
2021/03/19 05:36:55;;;;;;;4.45;3.92;;;6.40;99.90;;;;;;5072561;28;20201;-78
2021/03/19 05:39:21;;;;;;;5.45;4.80;;;6.40;99.90;;;;;;5072697;28;20217;-77
2021/03/19 05:41:48;;;;;;;5.65;4.25;;;6.40;99.90;;;;;;5072000;28;20214;-77
2021/03/19 05:44:17;;;;;;;4.75;4.22;;;6.40;99.90;;;;;;5081042;28;20194;-77
2021/03/19 05:46:46;;;;;;;7.22;4.70;;;6.30;99.90;;;;;;5079884;28;20311;-77
2021/03/19 05:49:19;;;;;;;6.72;5.30;;;6.40;99.90;;;;;;5092793;28;20233;-78
2021/03/19 05:51:48;;;;;;;4.60;4.15;;;6.30;99.90;;;;;;5092033;28;20217;-77
2021/03/19 05:54:19;;;;;;;4.05;3.55;;;6.30;99.90;;;;;;5092789;28;20197;-77
2021/03/19 05:56:46;;;;;;;5.18;4.07;;;6.30;99.90;;;;;;5089212;28;20708;-77
2021/03/19 05:59:13;;;;;;;4.63;4.22;;;6.30;99.90;;;;;;5092400;28;20224;-77
2021/03/19 06:01:40;;;;;;;6.45;4.95;;;6.30;99.90;;;;;;5075826;28;20693;-76
2021/03/19 06:04:11;;;;;;;8.65;4.93;;;6.30;99.90;;;;;;5077207;28;20214;-77
2021/03/19 06:06:53;;;;;;;5.72;4.57;;;6.30;99.90;;;;;;5092009;28;20182;-78
2021/03/19 06:09:33;;;;;;;4.80;4.05;;;6.30;99.90;;;;;;5073129;28;20701;-77
2021/03/19 06:12:05;;;;;;;4.90;4.45;;;6.30;99.90;;;;;;5071785;28;20721;-77
2021/03/19 06:14:40;;;;;;;5.88;4.05;;;6.30;99.90;;;;;;5088733;28;20554;-76
2021/03/19 06:17:21;;;;;;;5.43;4.93;;;6.20;99.90;;;;;;5078350;28;20218;-77
2021/03/19 06:19:54;;;;;;;6.43;5.03;;;6.20;99.90;;;;;;5072406;28;20225;-77
2021/03/19 06:22:25;;;;;;;4.95;4.30;;;6.30;99.90;;;;;;5072079;28;20214;-76
2021/03/19 06:24:58;;;;;;;7.72;4.30;;;6.30;99.90;;;;;;5073528;28;20187;-78
2021/03/19 06:27:29;;;;;;;5.63;4.22;;;6.30;99.90;;;;;;5085009;28;20696;-77
2021/03/19 06:30:01;;;;;;;4.85;4.35;;;6.40;99.90;;;;;;5071447;28;20267;-77
2021/03/19 06:32:30;;;;;;;5.28;3.88;;;6.60;99.90;;;;;;5071424;28;20244;-78
2021/03/19 06:35:15;;;;;;;5.32;4.25;;;6.70;99.90;;;;;;5072077;28;20224;-78
2021/03/19 06:37:44;;;;;;;5.25;4.65;;;6.90;99.90;;;;;;5070382;28;20721;-78
2021/03/19 06:40:28;;;;;;;5.45;3.65;;;7.10;99.90;;;;;;5079778;28;20219;-77
2021/03/19 06:43:10;;;;;;;4.40;4.00;;;7.20;99.90;;;;;;5075425;28;20194;-78
2021/03/19 06:45:37;;;;;;;5.40;4.68;;;7.40;99.90;;;;;;5081685;28;20190;-80
2021/03/19 06:48:03;;;;;;;3.90;3.60;;;7.50;99.90;;;;;;5074012;28;20226;-80
2021/03/19 06:50:40;;;;;;;4.70;3.38;;;7.50;99.90;;;;;;5087634;28;20210;-80
2021/03/19 06:53:15;;;;;;;4.65;3.13;;;7.60;99.90;;;;;;5090639;28;20186;-80
2021/03/19 06:55:44;;;;;;;5.93;3.22;;;7.60;99.90;;;;;;5073356;28;20213;-77
2021/03/19 06:58:11;;;;;;;4.72;3.35;;;7.60;99.90;;;;;;5075085;28;20218;-79
2021/03/19 07:00:41;;;;;;;4.55;3.65;;;7.70;99.90;;;;;;5087543;28;20214;-77
2021/03/19 07:03:32;;;;;;;3.60;3.30;;;7.80;99.90;;;;;;5091652;28;20213;-78
2021/03/19 07:06:31;;;;;;;4.88;2.92;;;8.00;99.90;;;;;;5091747;28;20225;-77
2021/03/19 07:09:04;;;;;;;5.43;4.25;;;8.00;99.90;;;;;;5066989;28;20230;-75
2021/03/19 07:11:47;;;;;;;4.47;3.83;;;8.00;99.90;;;;;;5087722;28;20614;-74
2021/03/19 07:14:51;;;;;;;6.25;3.47;;;8.10;99.90;;;;;;5091337;28;20213;-74
2021/03/19 07:17:44;;;;;;;3.55;2.92;;;8.00;99.90;;;;;;5071182;28;20218;-74
2021/03/19 07:20:22;;;;;;;4.72;3.15;;;8.00;99.90;;;;;;5070809;28;20230;-74
2021/03/19 07:22:56;;;;;;;3.63;3.30;;;8.00;99.90;;;;;;5070704;28;20214;-74
2021/03/19 07:25:36;;;;;;;4.90;3.45;;;8.00;99.90;;;;;;5070242;28;20233;-74
2021/03/19 07:28:42;;;;;;;4.07;3.05;;;8.10;99.90;;;;;;5076907;28;20206;-74
2021/03/19 07:31:26;;;;;;;4.45;3.10;;;8.20;99.90;;;;;;5008574;28;20399;-74
2021/03/19 07:34:08;;;;;;;4.20;3.20;;;8.30;99.90;;;;;;5067408;28;20693;-74
2021/03/19 07:36:48;;;;;;;6.50;3.60;;;8.40;99.90;;;;;;5070818;28;20183;-74
2021/03/19 07:39:52;;;;;;;2.90;2.70;;;8.40;99.90;;;;;;5070846;28;20218;-74
2021/03/19 07:42:39;;;;;;;3.83;2.70;;;8.50;99.90;;;;;;5065849;28;20193;-75
2021/03/19 07:45:15;;;;;;;3.10;2.50;;;8.50;99.90;;;;;;5077287;28;20195;-75
2021/03/19 07:48:00;;;;;;;4.43;3.75;;;8.60;99.90;;;;;;5079445;28;20689;-75
2021/03/19 07:50:38;;;;;;;3.45;3.03;;;8.60;99.90;;;;;;5083295;28;20209;-75
2021/03/19 07:53:25;;;;;;;6.47;3.00;;;8.60;99.90;;;;;;5070588;28;20689;-75
2021/03/19 07:55:59;;;;;;;3.05;2.80;;;8.80;99.90;;;;;;5072108;28;20210;-74
2021/03/19 07:58:47;;;;;;;2.85;2.60;;;8.70;99.90;;;;;;5070286;28;20214;-75
2021/03/19 08:01:23;;;;;;;6.03;3.20;;;8.70;99.90;;;;;;5070969;28;20233;-75
2021/03/19 08:03:56;;;;;;;3.15;2.85;;;8.70;99.90;;;;;;5081792;28;20198;-75
2021/03/19 08:06:34;;;;;;;3.88;3.03;;;8.80;99.90;;;;;;5079901;28;20212;-75
2021/03/19 08:09:05;;;;;;;3.45;2.72;;;8.80;99.90;;;;;;5070758;28;20210;-75
2021/03/19 08:11:38;;;;;;;3.28;2.97;;;8.90;99.90;;;;;;5070347;28;20221;-75
2021/03/19 08:14:33;;;;;;;3.30;2.60;;;8.90;99.90;;;;;;5070189;28;20221;-75
2021/03/19 08:17:03;;;;;;;3.20;2.78;;;8.90;99.90;;;;;;5073670;28;20221;-74
2021/03/19 08:19:35;;;;;;;2.85;2.65;;;8.90;99.90;;;;;;5085690;28;20197;-75
2021/03/19 08:22:13;;;;;;;4.90;3.40;;;8.90;99.90;;;;;;5087506;28;20224;-74
2021/03/19 08:24:48;;;;;;;2.80;2.10;;;9.00;99.90;;;;;;5075916;28;20206;-73
2021/03/19 08:27:22;;;;;;;5.10;2.90;;;9.00;99.90;;;;;;5070082;28;20206;-74
2021/03/19 08:29:57;;;;;;;4.03;2.72;;;9.10;99.90;;;;;;5080998;28;20296;-75
2021/03/19 08:32:36;;;;;;;2.78;2.58;;;9.10;99.90;;;;;;5090552;28;20181;-75
2021/03/19 08:35:10;;;;;;;2.70;2.35;;;9.10;99.90;;;;;;5080972;28;20186;-75
2021/03/19 08:37:44;;;;;;;2.88;2.58;;;9.00;99.90;;;;;;5090492;28;20228;-75
2021/03/19 08:40:19;;;;;;;4.82;2.95;;;9.10;99.90;;;;;;5077314;28;20190;-75
2021/03/19 08:42:51;;;;;;;2.80;2.22;;;9.00;99.90;;;;;;5074063;28;20235;-75
2021/03/19 08:45:22;;;;;;;2.47;2.28;;;9.10;99.90;;;;;;5089970;28;20216;-76
2021/03/19 08:47:53;;;;;;;2.70;2.13;;;9.10;99.90;;;;;;5090162;28;20237;-76
2021/03/19 08:50:27;;;;;;;4.18;2.90;;;9.10;99.90;;;;;;5074206;28;20636;-74
2021/03/19 08:53:13;;;;;;;3.40;2.83;;;9.10;99.90;;;;;;5079327;28;20197;-75
2021/03/19 08:55:40;;;;;;;2.53;2.20;;;9.20;99.90;;;;;;5082568;28;20259;-74
2021/03/19 08:58:45;;;;;;;3.35;2.40;;;9.30;99.90;;;;;;5093826;28;20757;-73
2021/03/19 09:01:12;;;;;;;2.97;2.67;;;9.20;99.90;;;;;;5065439;28;20567;-74
2021/03/19 09:03:54;;;;;;;4.63;2.03;;;9.30;99.90;;;;;;5073455;28;20230;-74
2021/03/19 09:06:30;;;;;;;2.97;2.72;;;9.30;99.90;;;;;;5072924;28;20214;-75
2021/03/19 09:09:36;;;;;;;3.55;2.40;;;9.40;99.90;;;;;;5081882;28;20209;-75
2021/03/19 09:12:17;;;;;;;4.00;2.05;;;9.40;99.90;;;;;;5083720;28;20383;-75
2021/03/19 09:14:50;;;;;;;2.20;2.00;;;9.40;99.90;;;;;;5076675;28;20220;-75
2021/03/19 09:17:52;;;;;;;1.95;1.58;;;9.40;99.90;;;;;;5075051;28;20631;-76
2021/03/19 09:20:44;;;;;;;3.47;2.05;;;9.50;99.90;;;;;;5091741;28;20250;-74
2021/03/19 09:23:22;;;;;;;4.15;3.75;;;9.50;99.90;;;;;;5082092;28;20214;-75
2021/03/19 09:25:51;;;;;;;3.17;2.05;;;9.40;99.90;;;;;;5071561;28;20193;-74
2021/03/19 09:28:23;;;;;;;1.63;1.52;;;9.30;99.90;;;;;;5073122;28;20295;-75
2021/03/19 09:30:52;;;;;;;3.35;1.73;;;9.30;99.90;;;;;;5082841;28;20202;-75
2021/03/19 09:33:55;;;;;;;2.95;1.60;;;9.30;99.90;;;;;;5088794;28;20194;-76
2021/03/19 09:36:52;;;;;;;1.90;1.80;;;9.30;99.90;;;;;;5084270;28;20266;-76
2021/03/19 09:39:55;;;;;;;2.40;1.58;;;9.30;99.90;;;;;;5072299;28;20199;-76
2021/03/19 09:42:48;;;;;;;3.67;1.38;;;9.40;99.90;;;;;;5072415;28;20557;-75
2021/03/19 09:45:43;;;;;;;4.32;1.30;;;9.30;99.90;;;;;;5081235;28;20214;-76
2021/03/19 09:48:28;;;;;;;2.58;1.20;;;9.20;99.90;;;;;;5083362;28;20247;-75
2021/03/19 09:50:59;;;;;;;2.72;1.60;;;9.00;99.90;;;;;;5090997;28;20250;-75
2021/03/19 09:53:34;;;;;;;2.65;1.48;;;9.00;99.90;;;;;;5088799;28;20205;-76
2021/03/19 09:56:02;;;;;;;3.15;1.33;;;9.00;99.90;;;;;;5072748;28;20225;-75
2021/03/19 09:58:38;;;;;;;1.80;1.60;;;8.90;99.90;;;;;;5082147;28;20213;-76
2021/03/19 10:01:12;;;;;;;2.15;1.45;;;8.80;99.50;;;;;;5073033;28;20279;-76
2021/03/19 10:03:46;;;;;;;1.80;1.58;;;8.80;99.90;;;;;;5071723;28;20209;-75
2021/03/19 10:06:24;;;;;;;2.45;1.35;;;8.70;99.90;;;;;;5071140;28;20214;-76
2021/03/19 10:08:51;;;;;;;2.17;1.90;;;8.70;99.90;;;;;;5071999;28;20268;-76
2021/03/19 10:11:18;;;;;;;1.77;1.48;;;8.70;99.90;;;;;;5071706;28;20223;-76
2021/03/19 10:13:45;;;;;;;1.70;1.60;;;8.90;99.90;;;;;;5070870;28;20310;-76
2021/03/19 10:16:24;;;;;;;2.08;1.67;;;8.80;99.90;;;;;;5081390;28;20226;-76
2021/03/19 10:18:50;;;;;;;2.10;1.35;;;8.90;99.90;;;;;;5075301;28;20226;-76
2021/03/19 10:21:20;;;;;;;2.60;1.42;;;8.90;99.90;;;;;;5071120;28;20222;-76
2021/03/19 10:23:53;;;;;;;1.50;1.35;;;8.80;99.90;;;;;;5073276;28;20221;-76
2021/03/19 10:26:26;;;;;;;5.60;1.50;;;8.90;99.90;;;;;;5079817;28;20206;-76
2021/03/19 10:29:02;;;;;;;3.80;1.40;;;8.90;99.90;;;;;;5078264;28;20713;-75
2021/03/19 10:31:29;;;;;;;2.30;1.42;;;9.00;99.90;;;;;;5085536;28;20728;-76
2021/03/19 10:34:01;;;;;;;4.50;1.45;;;8.90;99.90;;;;;;5087863;28;20213;-76
2021/03/19 10:36:37;;;;;;;1.40;1.10;;;9.00;99.90;;;;;;5071642;28;20224;-75
2021/03/19 10:39:12;;;;;;;2.30;1.40;;;9.00;99.90;;;;;;5071583;28;20588;-75
2021/03/19 10:41:45;;;;;;;3.05;1.50;;;9.00;99.90;;;;;;5073270;28;20666;-76
2021/03/19 10:44:19;;;;;;;3.70;1.45;;;9.00;99.90;;;;;;5079785;28;20209;-76
2021/03/19 10:46:49;;;;;;;1.70;1.40;;;9.00;99.90;;;;;;5091733;28;20217;-75
2021/03/19 10:49:19;;;;;;;3.38;1.35;;;9.00;99.90;;;;;;5090852;28;20236;-75
2021/03/19 10:51:49;;;;;;;1.38;1.25;;;9.00;99.90;;;;;;5082706;28;20329;-74
2021/03/19 10:54:22;;;;;;;2.78;1.48;;;9.00;99.70;;;;;;5071273;28;20221;-75
2021/03/19 10:56:51;;;;;;;2.13;1.60;;;9.00;99.30;;;;;;5083263;28;20214;-76
2021/03/19 10:59:31;;;;;;;3.92;1.27;;;9.00;99.60;;;;;;5089678;28;20209;-76
2021/03/19 11:02:15;;;;;;;1.80;1.10;;;8.90;98.60;;;;;;5071327;28;20222;-75
2021/03/19 11:04:43;;;;;;;3.92;1.10;;;8.90;98.70;;;;;;5068976;28;20260;-76
2021/03/19 11:07:30;;;;;;;1.20;0.90;;;8.90;98.10;;;;;;5077203;28;20549;-77
2021/03/19 11:10:24;;;;;;;1.63;1.00;;;8.80;98.40;;;;;;5086146;28;20228;-76
2021/03/19 11:12:52;;;;;;;1.30;0.90;;;8.80;99.90;;;;;;5072877;28;20212;-76
2021/03/19 11:15:22;;;;;;;1.20;1.10;;;8.80;99.20;;;;;;5090936;28;20197;-77
2021/03/19 11:18:16;;;;;;;1.30;1.02;;;8.90;99.90;;;;;;5078003;28;20221;-76
2021/03/19 11:20:44;;;;;;;3.60;1.00;;;8.90;98.30;;;;;;5073976;28;20230;-77
2021/03/19 11:23:23;;;;;;;2.22;1.10;;;8.90;97.40;;;;;;5078071;28;20689;-76
2021/03/19 11:25:51;;;;;;;2.83;1.10;;;8.80;95.50;;;;;;5071483;28;20637;-78
2021/03/19 11:28:40;;;;;;;1.30;1.00;;;8.80;97.40;;;;;;5077196;28;20217;-78
2021/03/19 11:31:26;;;;;;;1.50;1.33;;;8.80;98.50;;;;;;5085229;28;20198;-77
2021/03/19 11:34:07;;;;;;;1.30;0.90;;;8.70;97.20;;;;;;5071681;28;20214;-78
2021/03/19 11:36:54;;;;;;;2.05;1.20;;;8.80;97.70;;;;;;5070359;28;20218;-78
2021/03/19 11:39:37;;;;;;;1.45;0.95;;;8.80;97.70;;;;;;5071179;28;20179;-78
2021/03/19 11:42:05;;;;;;;1.23;1.08;;;8.70;97.90;;;;;;5071260;28;20296;-77
2021/03/19 11:44:31;;;;;;;1.20;0.90;;;8.70;96.30;;;;;;5075845;28;20235;-76
2021/03/19 11:47:00;;;;;;;1.65;1.05;;;8.60;96.10;;;;;;5070613;28;20281;-78
2021/03/19 11:49:27;;;;;;;1.10;0.90;;;8.70;96.20;;;;;;5070411;28;20708;-77
2021/03/19 11:51:53;;;;;;;1.60;1.00;;;8.70;97.00;;;;;;5071677;28;20214;-77
2021/03/19 11:54:19;;;;;;;2.67;0.80;;;8.80;97.40;;;;;;5070388;28;20214;-78
2021/03/19 11:56:45;;;;;;;2.15;1.05;;;8.80;98.30;;;;;;5070605;28;20222;-77
2021/03/19 11:59:13;;;;;;;3.38;1.20;;;8.80;98.10;;;;;;5071153;28;20274;-78
2021/03/19 12:01:41;;;;;;;1.30;1.08;;;8.70;97.60;;;;;;5085113;28;20275;-77
2021/03/19 12:04:07;;;;;;;1.67;1.00;;;8.70;97.70;;;;;;5095821;28;20213;-76
2021/03/19 12:06:36;;;;;;;1.88;1.10;;;8.60;98.00;;;;;;5080010;28;20538;-76
2021/03/19 12:09:03;;;;;;;1.90;1.17;;;8.60;97.30;;;;;;5100091;28;20312;-76
2021/03/19 12:11:35;;;;;;;1.30;1.15;;;8.70;97.10;;;;;;5088278;28;20275;-77
2021/03/19 12:14:02;;;;;;;2.03;1.00;;;8.70;97.50;;;;;;5074375;28;20243;-77
2021/03/19 12:16:29;;;;;;;1.23;0.90;;;8.80;98.00;;;;;;5078428;28;20683;-77
2021/03/19 12:18:56;;;;;;;2.10;0.95;;;8.80;98.60;;;;;;5072077;28;20213;-77
2021/03/19 12:21:22;;;;;;;1.30;0.88;;;8.80;99.10;;;;;;5069997;28;20315;-77
2021/03/19 12:23:50;;;;;;;1.20;0.90;;;8.70;97.10;;;;;;5070443;28;20256;-77
2021/03/19 12:26:17;;;;;;;2.75;1.20;;;8.80;97.40;;;;;;5069717;28;20210;-77
2021/03/19 12:28:43;;;;;;;4.90;1.00;;;8.70;95.10;;;;;;5072324;28;20256;-77
2021/03/19 12:31:11;;;;;;;1.95;1.10;;;8.80;96.10;;;;;;5074152;28;20190;-78
2021/03/19 12:33:38;;;;;;;1.10;0.90;;;8.80;96.10;;;;;;5074121;28;20240;-78
2021/03/19 12:36:06;;;;;;;1.40;0.82;;;8.70;94.70;;;;;;5074019;28;20202;-76
2021/03/19 12:38:33;;;;;;;2.03;1.00;;;8.80;97.30;;;;;;5073250;28;20198;-77
2021/03/19 12:41:01;;;;;;;2.08;0.80;;;8.90;97.80;;;;;;5073750;28;20210;-77
2021/03/19 12:43:27;;;;;;;1.30;1.00;;;8.90;98.40;;;;;;5073357;28;20549;-77
2021/03/19 12:45:54;;;;;;;2.50;1.00;;;8.90;97.20;;;;;;5077889;28;20220;-76
2021/03/19 12:48:20;;;;;;;2.65;1.15;;;8.90;96.80;;;;;;5076172;28;20218;-78
2021/03/19 12:50:47;;;;;;;1.20;0.88;;;8.90;97.20;;;;;;5082214;28;20217;-79
2021/03/19 12:53:15;;;;;;;2.75;1.00;;;9.00;96.90;;;;;;5073605;28;20218;-78
2021/03/19 12:55:42;;;;;;;1.50;0.90;;;9.00;94.80;;;;;;5087188;28;20210;-79
2021/03/19 12:58:10;;;;;;;1.10;1.00;;;8.90;94.30;;;;;;5091777;28;20197;-77
2021/03/19 13:00:38;;;;;;;1.13;0.98;;;8.70;93.80;;;;;;5091791;28;20213;-76
2021/03/19 13:03:05;;;;;;;1.33;1.00;;;8.80;94.20;;;;;;5077666;28;20211;-75
2021/03/19 13:05:33;;;;;;;1.00;0.82;;;8.80;93.10;;;;;;5086778;28;20274;-78
2021/03/19 13:07:59;;;;;;;0.98;0.80;;;8.80;94.20;;;;;;5084369;28;20685;-77
2021/03/19 13:10:27;;;;;;;1.20;0.80;;;8.80;95.00;;;;;;5075602;28;20216;-78
2021/03/19 13:12:54;;;;;;;1.13;0.90;;;8.80;96.30;;;;;;5073451;28;20197;-79
2021/03/19 13:15:26;;;;;;;1.10;0.80;;;8.90;96.20;;;;;;5080769;28;20576;-77
2021/03/19 13:17:52;;;;;;;1.75;0.90;;;8.90;96.60;;;;;;5074804;28;20217;-78
2021/03/19 13:20:20;;;;;;;1.10;0.90;;;8.90;94.70;;;;;;5090058;28;20248;-79
2021/03/19 13:22:47;;;;;;;1.38;0.70;;;8.90;94.00;;;;;;5090791;28;20220;-78
2021/03/19 13:25:17;;;;;;;1.00;0.80;;;8.80;91.90;;;;;;5091334;28;20254;-78
2021/03/19 13:27:44;;;;;;;0.85;0.65;;;8.90;93.90;;;;;;5072184;28;20194;-77
2021/03/19 13:30:12;;;;;;;1.10;1.00;;;8.80;92.40;;;;;;5072780;28;20201;-78